Kirkersville, Ohio
Current Conditions -  °F | °C
As of 10:54 AM on Friday 24 Oct 2014 (Local Time) from KVTA Reporting Station
Clear Clear  
Wind Chill: 52°   Ceiling: Unl
Heat Index: 52°   Visibility: 10mi
Dew Point: 44°   Wind: 3mph
Humidity: 74%   Direction: 190°S
Pressure: 30.11"   Gusts: NA
Location:  39.96°N, 82.6°W
Report Text: KVTA 241454Z AUTO 19003KT 10SM CLR 11/07 A3011 RMK AO2 SLP200 T01110067 58002
Loading
Personal Weather Stations






























Interactive Weather Map
Tropical Storm Tracking
New forecast layout! Learn more

10-Day Weather Forecast

Advertisements
Track Severe Weather on mobile